sensor_id;sensor_type;location;lat;lon;timestamp;temperature;humidity
1956;DHT22;978;48.314;11.562;2023-12-22T00:01:23;20.60;62.90
1956;DHT22;978;48.314;11.562;2023-12-22T00:03:51;20.60;62.30
1956;DHT22;978;48.314;11.562;2023-12-22T00:06:19;20.60;62.90
1956;DHT22;978;48.314;11.562;2023-12-22T00:08:49;20.60;62.90
1956;DHT22;978;48.314;11.562;2023-12-22T00:11:17;20.60;62.80
1956;DHT22;978;48.314;11.562;2023-12-22T00:13:46;20.60;62.80
1956;DHT22;978;48.314;11.562;2023-12-22T00:16:14;20.60;62.80
1956;DHT22;978;48.314;11.562;2023-12-22T00:18:42;20.60;62.80
1956;DHT22;978;48.314;11.562;2023-12-22T00:21:10;20.60;62.80
1956;DHT22;978;48.314;11.562;2023-12-22T00:23:38;20.60;62.80
1956;DHT22;978;48.314;11.562;2023-12-22T00:26:07;20.60;62.70
1956;DHT22;978;48.314;11.562;2023-12-22T00:28:37;20.60;63.30
1956;DHT22;978;48.314;11.562;2023-12-22T00:31:05;20.60;62.70
1956;DHT22;978;48.314;11.562;2023-12-22T00:33:36;20.60;62.70
1956;DHT22;978;48.314;11.562;2023-12-22T00:36:04;20.60;62.70
1956;DHT22;978;48.314;11.562;2023-12-22T00:38:32;20.60;62.70
1956;DHT22;978;48.314;11.562;2023-12-22T00:41:01;20.60;62.70
1956;DHT22;978;48.314;11.562;2023-12-22T00:43:30;20.60;62.20
1956;DHT22;978;48.314;11.562;2023-12-22T00:45:58;20.60;62.70
1956;DHT22;978;48.314;11.562;2023-12-22T00:48:26;20.60;62.70
1956;DHT22;978;48.314;11.562;2023-12-22T00:50:55;20.60;62.20
1956;DHT22;978;48.314;11.562;2023-12-22T00:53:23;20.60;62.70
1956;DHT22;978;48.314;11.562;2023-12-22T00:55:51;20.60;62.70
1956;DHT22;978;48.314;11.562;2023-12-22T00:58:19;20.60;62.10
1956;DHT22;978;48.314;11.562;2023-12-22T01:00:49;20.60;62.70
1956;DHT22;978;48.314;11.562;2023-12-22T01:03:17;20.60;62.70
1956;DHT22;978;48.314;11.562;2023-12-22T01:05:45;20.60;62.60
1956;DHT22;978;48.314;11.562;2023-12-22T01:08:13;20.60;62.70
1956;DHT22;978;48.314;11.562;2023-12-22T01:10:41;20.60;62.10
1956;DHT22;978;48.314;11.562;2023-12-22T01:13:09;20.60;62.60
1956;DHT22;978;48.314;11.562;2023-12-22T01:15:37;20.60;62.20
1956;DHT22;978;48.314;11.562;2023-12-22T01:18:06;20.60;62.70
1956;DHT22;978;48.314;11.562;2023-12-22T01:20:37;20.60;62.60
1956;DHT22;978;48.314;11.562;2023-12-22T01:23:05;20.60;62.10
1956;DHT22;978;48.314;11.562;2023-12-22T01:25:33;20.60;62.60
1956;DHT22;978;48.314;11.562;2023-12-22T01:28:01;20.60;62.60
1956;DHT22;978;48.314;11.562;2023-12-22T01:30:29;20.60;62.60
1956;DHT22;978;48.314;11.562;2023-12-22T01:32:57;20.60;62.60
1956;DHT22;978;48.314;11.562;2023-12-22T01:35:26;20.80;62.70
1956;DHT22;978;48.314;11.562;2023-12-22T01:37:55;20.60;62.60
1956;DHT22;978;48.314;11.562;2023-12-22T01:40:23;20.60;62.60
1956;DHT22;978;48.314;11.562;2023-12-22T01:42:51;20.60;62.60
1956;DHT22;978;48.314;11.562;2023-12-22T01:45:19;20.60;62.60
1956;DHT22;978;48.314;11.562;2023-12-22T01:47:47;20.70;63.30
1956;DHT22;978;48.314;11.562;2023-12-22T01:50:15;20.60;62.60
1956;DHT22;978;48.314;11.562;2023-12-22T01:52:45;20.60;62.60
1956;DHT22;978;48.314;11.562;2023-12-22T01:55:14;20.60;62.60
1956;DHT22;978;48.314;11.562;2023-12-22T01:57:44;20.60;62.60
1956;DHT22;978;48.314;11.562;2023-12-22T02:00:14;20.60;63.20
1956;DHT22;978;48.314;11.562;2023-12-22T02:02:42;20.60;62.60
1956;DHT22;978;48.314;11.562;2023-12-22T02:05:10;20.60;62.60
1956;DHT22;978;48.314;11.562;2023-12-22T02:07:41;20.60;62.60
1956;DHT22;978;48.314;11.562;2023-12-22T02:10:11;20.60;62.60
1956;DHT22;978;48.314;11.562;2023-12-22T02:12:39;20.60;62.60
1956;DHT22;978;48.314;11.562;2023-12-22T02:15:06;20.80;62.70
1956;DHT22;978;48.314;11.562;2023-12-22T02:17:43;20.60;62.60
1956;DHT22;978;48.314;11.562;2023-12-22T02:20:12;20.60;62.60
1956;DHT22;978;48.314;11.562;2023-12-22T02:22:42;20.60;62.00
1956;DHT22;978;48.314;11.562;2023-12-22T02:25:10;20.60;62.00
1956;DHT22;978;48.314;11.562;2023-12-22T02:27:45;20.60;62.60
1956;DHT22;978;48.314;11.562;2023-12-22T02:30:18;20.60;62.50
1956;DHT22;978;48.314;11.562;2023-12-22T02:32:52;20.60;62.50
1956;DHT22;978;48.314;11.562;2023-12-22T02:35:24;20.60;62.50
1956;DHT22;978;48.314;11.562;2023-12-22T02:37:56;20.60;62.00
1956;DHT22;978;48.314;11.562;2023-12-22T02:40:25;20.60;62.50
1956;DHT22;978;48.314;11.562;2023-12-22T02:42:53;20.60;62.00
1956;DHT22;978;48.314;11.562;2023-12-22T02:45:21;20.60;62.50
1956;DHT22;978;48.314;11.562;2023-12-22T02:47:49;20.60;62.50
1956;DHT22;978;48.314;11.562;2023-12-22T02:50:17;20.60;62.00
1956;DHT22;978;48.314;11.562;2023-12-22T02:52:45;20.60;62.50
1956;DHT22;978;48.314;11.562;2023-12-22T02:55:14;20.60;62.50
1956;DHT22;978;48.314;11.562;2023-12-22T02:57:42;20.60;62.50
1956;DHT22;978;48.314;11.562;2023-12-22T03:00:10;20.60;62.50
1956;DHT22;978;48.314;11.562;2023-12-22T03:02:40;20.60;62.50
1956;DHT22;978;48.314;11.562;2023-12-22T03:05:08;20.60;62.50
1956;DHT22;978;48.314;11.562;2023-12-22T03:07:36;20.60;62.50
1956;DHT22;978;48.314;11.562;2023-12-22T03:10:05;20.70;62.50
1956;DHT22;978;48.314;11.562;2023-12-22T03:12:37;20.60;61.90
1956;DHT22;978;48.314;11.562;2023-12-22T03:15:05;20.60;62.40
1956;DHT22;978;48.314;11.562;2023-12-22T03:17:33;20.60;62.40
1956;DHT22;978;48.314;11.562;2023-12-22T03:20:02;20.60;62.40
1956;DHT22;978;48.314;11.562;2023-12-22T03:22:30;20.60;61.90
1956;DHT22;978;48.314;11.562;2023-12-22T03:24:58;20.60;62.40
1956;DHT22;978;48.314;11.562;2023-12-22T03:27:25;20.60;62.40
1956;DHT22;978;48.314;11.562;2023-12-22T03:29:55;20.90;62.60
1956;DHT22;978;48.314;11.562;2023-12-22T03:32:23;20.60;62.40
1956;DHT22;978;48.314;11.562;2023-12-22T03:34:51;20.70;62.50
1956;DHT22;978;48.314;11.562;2023-12-22T03:37:19;20.60;62.40
1956;DHT22;978;48.314;11.562;2023-12-22T03:39:47;20.60;62.30
1956;DHT22;978;48.314;11.562;2023-12-22T03:42:15;20.60;62.30
1956;DHT22;978;48.314;11.562;2023-12-22T03:44:43;20.60;62.30
1956;DHT22;978;48.314;11.562;2023-12-22T03:47:12;20.60;62.90
1956;DHT22;978;48.314;11.562;2023-12-22T03:49:42;20.60;62.30
1956;DHT22;978;48.314;11.562;2023-12-22T03:52:10;20.60;62.30
1956;DHT22;978;48.314;11.562;2023-12-22T03:54:38;20.60;62.30
1956;DHT22;978;48.314;11.562;2023-12-22T03:57:05;20.60;62.30
1956;DHT22;978;48.314;11.562;2023-12-22T03:59:33;20.60;62.30
1956;DHT22;978;48.314;11.562;2023-12-22T04:02:01;20.60;61.80
1956;DHT22;978;48.314;11.562;2023-12-22T04:04:31;20.60;62.30
1956;DHT22;978;48.314;11.562;2023-12-22T04:06:59;20.60;62.30
1956;DHT22;978;48.314;11.562;2023-12-22T04:09:25;20.60;62.30
1956;DHT22;978;48.314;11.562;2023-12-22T04:11:52;20.60;62.30
1956;DHT22;978;48.314;11.562;2023-12-22T04:14:20;20.60;62.20
1956;DHT22;978;48.314;11.562;2023-12-22T04:16:48;20.60;62.20
1956;DHT22;978;48.314;11.562;2023-12-22T04:19:19;20.70;62.30
1956;DHT22;978;48.314;11.562;2023-12-22T04:21:48;20.60;62.20
1956;DHT22;978;48.314;11.562;2023-12-22T04:24:16;20.60;62.20
1956;DHT22;978;48.314;11.562;2023-12-22T04:26:44;21.90;62.90
1956;DHT22;978;48.314;11.562;2023-12-22T04:29:12;20.40;62.00
1956;DHT22;978;48.314;11.562;2023-12-22T04:31:41;20.60;62.20
1956;DHT22;978;48.314;11.562;2023-12-22T04:34:09;20.70;61.70
1956;DHT22;978;48.314;11.562;2023-12-22T04:36:37;20.60;61.70
1956;DHT22;978;48.314;11.562;2023-12-22T04:39:06;20.60;62.20
1956;DHT22;978;48.314;11.562;2023-12-22T04:41:38;20.70;62.20
1956;DHT22;978;48.314;11.562;2023-12-22T04:44:05;20.60;61.60
1956;DHT22;978;48.314;11.562;2023-12-22T04:46:33;20.60;62.10
1956;DHT22;978;48.314;11.562;2023-12-22T04:49:01;20.70;62.20
1956;DHT22;978;48.314;11.562;2023-12-22T04:51:29;20.70;62.20
1956;DHT22;978;48.314;11.562;2023-12-22T04:53:57;20.90;62.30
1956;DHT22;978;48.314;11.562;2023-12-22T04:56:27;20.60;62.10
1956;DHT22;978;48.314;11.562;2023-12-22T04:58:55;20.70;62.20
1956;DHT22;978;48.314;11.562;2023-12-22T05:01:23;20.60;62.10
1956;DHT22;978;48.314;11.562;2023-12-22T05:03:51;20.60;62.10
1956;DHT22;978;48.314;11.562;2023-12-22T05:06:20;20.70;62.10
1956;DHT22;978;48.314;11.562;2023-12-22T05:08:48;20.60;62.10
1956;DHT22;978;48.314;11.562;2023-12-22T05:11:16;20.60;62.10
1956;DHT22;978;48.314;11.562;2023-12-22T05:13:45;20.60;62.10
1956;DHT22;978;48.314;11.562;2023-12-22T05:16:13;20.70;61.70
1956;DHT22;978;48.314;11.562;2023-12-22T05:18:41;20.60;62.10
1956;DHT22;978;48.314;11.562;2023-12-22T05:21:12;20.60;62.10
1956;DHT22;978;48.314;11.562;2023-12-22T05:23:40;20.60;62.10
1956;DHT22;978;48.314;11.562;2023-12-22T05:26:07;20.60;62.10
1956;DHT22;978;48.314;11.562;2023-12-22T05:28:37;20.70;62.20
1956;DHT22;978;48.314;11.562;2023-12-22T05:31:07;20.70;61.70
1956;DHT22;978;48.314;11.562;2023-12-22T05:33:37;20.60;62.20
1956;DHT22;978;48.314;11.562;2023-12-22T05:36:06;20.70;62.20
1956;DHT22;978;48.314;11.562;2023-12-22T05:38:37;20.60;62.20
1956;DHT22;978;48.314;11.562;2023-12-22T05:41:05;20.70;62.30
1956;DHT22;978;48.314;11.562;2023-12-22T05:43:33;20.60;62.20
1956;DHT22;978;48.314;11.562;2023-12-22T05:46:01;20.60;62.30
1956;DHT22;978;48.314;11.562;2023-12-22T05:48:30;20.70;62.30
1956;DHT22;978;48.314;11.562;2023-12-22T05:50:58;20.60;62.30
1956;DHT22;978;48.314;11.562;2023-12-22T05:53:26;20.60;61.80
1956;DHT22;978;48.314;11.562;2023-12-22T05:55:54;20.60;62.30
1956;DHT22;978;48.314;11.562;2023-12-22T05:58:22;20.70;62.40
1956;DHT22;978;48.314;11.562;2023-12-22T06:00:49;20.60;62.30
1956;DHT22;978;48.314;11.562;2023-12-22T06:03:18;20.60;61.80
1956;DHT22;978;48.314;11.562;2023-12-22T06:05:47;20.70;61.90
1956;DHT22;978;48.314;11.562;2023-12-22T06:08:15;20.60;62.30
1956;DHT22;978;48.314;11.562;2023-12-22T06:10:43;20.70;62.40
1956;DHT22;978;48.314;11.562;2023-12-22T06:13:10;20.70;61.90
1956;DHT22;978;48.314;11.562;2023-12-22T06:15:38;20.60;62.40
1956;DHT22;978;48.314;11.562;2023-12-22T06:18:05;20.60;62.40
1956;DHT22;978;48.314;11.562;2023-12-22T06:20:36;20.60;62.40
1956;DHT22;978;48.314;11.562;2023-12-22T06:23:05;20.70;62.50
1956;DHT22;978;48.314;11.562;2023-12-22T06:25:36;20.60;62.40
1956;DHT22;978;48.314;11.562;2023-12-22T06:28:04;20.70;62.00
1956;DHT22;978;48.314;11.562;2023-12-22T06:30:32;20.60;62.50
1956;DHT22;978;48.314;11.562;2023-12-22T06:33:00;20.70;62.50
1956;DHT22;978;48.314;11.562;2023-12-22T06:35:28;20.70;62.50
1956;DHT22;978;48.314;11.562;2023-12-22T06:37:58;20.70;62.60
1956;DHT22;978;48.314;11.562;2023-12-22T06:40:31;20.70;62.60
1956;DHT22;978;48.314;11.562;2023-12-22T06:42:59;20.70;62.60
1956;DHT22;978;48.314;11.562;2023-12-22T06:45:27;20.70;62.60
1956;DHT22;978;48.314;11.562;2023-12-22T06:47:55;20.60;62.00
1956;DHT22;978;48.314;11.562;2023-12-22T06:50:23;20.70;62.60
1956;DHT22;978;48.314;11.562;2023-12-22T06:52:51;20.70;62.70
1956;DHT22;978;48.314;11.562;2023-12-22T06:55:19;20.60;62.60
1956;DHT22;978;48.314;11.562;2023-12-22T06:57:49;20.70;62.20
1956;DHT22;978;48.314;11.562;2023-12-22T07:00:17;20.70;62.20
1956;DHT22;978;48.314;11.562;2023-12-22T07:02:45;20.70;62.70
1956;DHT22;978;48.314;11.562;2023-12-22T07:05:32;20.70;62.20
1956;DHT22;978;48.314;11.562;2023-12-22T07:08:00;20.70;62.70
1956;DHT22;978;48.314;11.562;2023-12-22T07:10:28;20.70;62.70
1956;DHT22;978;48.314;11.562;2023-12-22T07:12:57;20.60;62.70
1956;DHT22;978;48.314;11.562;2023-12-22T07:15:25;20.90;62.90
1956;DHT22;978;48.314;11.562;2023-12-22T07:17:55;20.70;62.70
1956;DHT22;978;48.314;11.562;2023-12-22T07:20:23;20.70;62.70
1956;DHT22;978;48.314;11.562;2023-12-22T07:22:51;20.60;62.20
1956;DHT22;978;48.314;11.562;2023-12-22T07:25:20;20.70;62.80
1956;DHT22;978;48.314;11.562;2023-12-22T07:27:48;20.70;62.80
1956;DHT22;978;48.314;11.562;2023-12-22T07:30:18;20.70;62.80
1956;DHT22;978;48.314;11.562;2023-12-22T07:32:45;20.70;62.80
1956;DHT22;978;48.314;11.562;2023-12-22T07:35:15;20.70;62.30
1956;DHT22;978;48.314;11.562;2023-12-22T07:37:43;20.80;62.90
1956;DHT22;978;48.314;11.562;2023-12-22T07:40:10;20.70;62.80
1956;DHT22;978;48.314;11.562;2023-12-22T07:42:41;20.70;62.80
1956;DHT22;978;48.314;11.562;2023-12-22T07:45:08;20.70;62.30
1956;DHT22;978;48.314;11.562;2023-12-22T07:47:38;20.70;62.30
1956;DHT22;978;48.314;11.562;2023-12-22T07:50:07;22.20;63.70
1956;DHT22;978;48.314;11.562;2023-12-22T07:52:37;20.70;62.80
1956;DHT22;978;48.314;11.562;2023-12-22T07:55:06;20.70;62.40
1956;DHT22;978;48.314;11.562;2023-12-22T07:57:36;20.70;62.80
1956;DHT22;978;48.314;11.562;2023-12-22T08:00:05;20.70;62.80
1956;DHT22;978;48.314;11.562;2023-12-22T08:02:33;20.70;62.90
1956;DHT22;978;48.314;11.562;2023-12-22T08:05:03;20.70;62.80
1956;DHT22;978;48.314;11.562;2023-12-22T08:07:31;20.70;62.90
1956;DHT22;978;48.314;11.562;2023-12-22T08:09:59;20.70;62.80
1956;DHT22;978;48.314;11.562;2023-12-22T08:12:28;20.70;62.40
1956;DHT22;978;48.314;11.562;2023-12-22T08:14:57;20.70;62.90
1956;DHT22;978;48.314;11.562;2023-12-22T08:17:25;20.70;62.80
1956;DHT22;978;48.314;11.562;2023-12-22T08:19:53;20.70;62.80
1956;DHT22;978;48.314;11.562;2023-12-22T08:22:22;20.70;62.90
1956;DHT22;978;48.314;11.562;2023-12-22T08:24:50;20.70;62.80
1956;DHT22;978;48.314;11.562;2023-12-22T08:27:18;20.70;62.30
1956;DHT22;978;48.314;11.562;2023-12-22T08:29:46;20.70;62.40
1956;DHT22;978;48.314;11.562;2023-12-22T08:32:14;20.70;62.90
1956;DHT22;978;48.314;11.562;2023-12-22T08:34:42;20.70;62.90
1956;DHT22;978;48.314;11.562;2023-12-22T08:37:11;20.70;62.90
1956;DHT22;978;48.314;11.562;2023-12-22T08:39:40;20.70;62.30
1956;DHT22;978;48.314;11.562;2023-12-22T08:42:07;20.70;62.90
1956;DHT22;978;48.314;11.562;2023-12-22T08:44:39;20.70;62.40
1956;DHT22;978;48.314;11.562;2023-12-22T08:47:05;20.70;62.90
1956;DHT22;978;48.314;11.562;2023-12-22T08:49:34;20.70;62.90
1956;DHT22;978;48.314;11.562;2023-12-22T08:52:02;20.70;62.90
1956;DHT22;978;48.314;11.562;2023-12-22T08:54:31;20.70;62.40
1956;DHT22;978;48.314;11.562;2023-12-22T08:57:03;20.70;62.40
1956;DHT22;978;48.314;11.562;2023-12-22T08:59:31;20.70;62.90
1956;DHT22;978;48.314;11.562;2023-12-22T09:01:59;20.70;62.90
1956;DHT22;978;48.314;11.562;2023-12-22T09:04:27;20.70;62.90
1956;DHT22;978;48.314;11.562;2023-12-22T09:06:55;20.70;62.90
1956;DHT22;978;48.314;11.562;2023-12-22T09:09:23;20.70;62.90
1956;DHT22;978;48.314;11.562;2023-12-22T09:11:52;20.70;62.90
1956;DHT22;978;48.314;11.562;2023-12-22T09:14:22;20.70;62.90
1956;DHT22;978;48.314;11.562;2023-12-22T09:16:49;20.90;63.00
1956;DHT22;978;48.314;11.562;2023-12-22T09:19:16;20.70;62.90
1956;DHT22;978;48.314;11.562;2023-12-22T09:21:44;20.70;63.50
1956;DHT22;978;48.314;11.562;2023-12-22T09:24:11;20.70;62.90
1956;DHT22;978;48.314;11.562;2023-12-22T09:26:40;20.70;63.50
1956;DHT22;978;48.314;11.562;2023-12-22T09:29:06;20.70;62.90
1956;DHT22;978;48.314;11.562;2023-12-22T09:31:37;20.70;62.90
1956;DHT22;978;48.314;11.562;2023-12-22T09:34:04;20.70;62.90
1956;DHT22;978;48.314;11.562;2023-12-22T09:36:32;20.70;62.90
1956;DHT22;978;48.314;11.562;2023-12-22T09:39:01;20.70;62.40
1956;DHT22;978;48.314;11.562;2023-12-22T09:41:29;20.70;62.90
1956;DHT22;978;48.314;11.562;2023-12-22T09:43:58;20.70;62.80
1956;DHT22;978;48.314;11.562;2023-12-22T09:46:29;20.70;62.80
1956;DHT22;978;48.314;11.562;2023-12-22T09:49:00;20.70;62.30
1956;DHT22;978;48.314;11.562;2023-12-22T09:51:29;20.70;62.80
1956;DHT22;978;48.314;11.562;2023-12-22T09:53:58;20.70;62.80
1956;DHT22;978;48.314;11.562;2023-12-22T09:56:27;20.70;62.80
1956;DHT22;978;48.314;11.562;2023-12-22T09:58:57;17.10;60.70
1956;DHT22;978;48.314;11.562;2023-12-22T10:01:26;20.70;62.80
1956;DHT22;978;48.314;11.562;2023-12-22T10:03:54;21.00;63.00
1956;DHT22;978;48.314;11.562;2023-12-22T10:06:24;20.70;62.70
1956;DHT22;978;48.314;11.562;2023-12-22T10:08:52;20.70;62.70
1956;DHT22;978;48.314;11.562;2023-12-22T10:11:22;20.70;62.70
1956;DHT22;978;48.314;11.562;2023-12-22T10:13:52;20.70;62.70
1956;DHT22;978;48.314;11.562;2023-12-22T10:16:21;20.70;62.60
1956;DHT22;978;48.314;11.562;2023-12-22T10:18:50;20.70;62.70
1956;DHT22;978;48.314;11.562;2023-12-22T10:21:18;20.70;62.60
1956;DHT22;978;48.314;11.562;2023-12-22T10:23:48;20.70;62.60
1956;DHT22;978;48.314;11.562;2023-12-22T10:26:15;20.70;62.60
1956;DHT22;978;48.314;11.562;2023-12-22T10:28:46;20.90;62.70
1956;DHT22;978;48.314;11.562;2023-12-22T10:31:15;20.70;62.50
1956;DHT22;978;48.314;11.562;2023-12-22T10:33:43;20.70;63.10
1956;DHT22;978;48.314;11.562;2023-12-22T10:36:10;20.70;63.10
1956;DHT22;978;48.314;11.562;2023-12-22T10:38:38;20.70;62.50
1956;DHT22;978;48.314;11.562;2023-12-22T10:41:07;20.70;61.90
1956;DHT22;978;48.314;11.562;2023-12-22T10:43:38;20.70;62.40
1956;DHT22;978;48.314;11.562;2023-12-22T10:46:06;20.70;61.90
1956;DHT22;978;48.314;11.562;2023-12-22T10:48:34;20.70;62.40
1956;DHT22;978;48.314;11.562;2023-12-22T10:51:03;21.10;62.60
1956;DHT22;978;48.314;11.562;2023-12-22T10:53:31;20.70;62.30
1956;DHT22;978;48.314;11.562;2023-12-22T10:55:59;20.70;62.30
1956;DHT22;978;48.314;11.562;2023-12-22T10:58:30;20.70;62.30
1956;DHT22;978;48.314;11.562;2023-12-22T11:00:59;25.20;64.30
1956;DHT22;978;48.314;11.562;2023-12-22T11:03:31;20.70;62.30
1956;DHT22;978;48.314;11.562;2023-12-22T11:06:04;20.70;62.20
1956;DHT22;978;48.314;11.562;2023-12-22T11:08:33;20.70;61.70
1956;DHT22;978;48.314;11.562;2023-12-22T11:11:08;20.70;62.20
1956;DHT22;978;48.314;11.562;2023-12-22T11:13:40;20.70;62.20
1956;DHT22;978;48.314;11.562;2023-12-22T11:16:09;20.70;62.20
1956;DHT22;978;48.314;11.562;2023-12-22T11:18:38;20.70;62.20
1956;DHT22;978;48.314;11.562;2023-12-22T11:21:06;20.70;62.20
1956;DHT22;978;48.314;11.562;2023-12-22T11:23:36;20.70;62.20
1956;DHT22;978;48.314;11.562;2023-12-22T11:26:04;20.70;62.30
1956;DHT22;978;48.314;11.562;2023-12-22T11:28:33;20.70;61.80
1956;DHT22;978;48.314;11.562;2023-12-22T11:31:04;22.10;62.10
1956;DHT22;978;48.314;11.562;2023-12-22T11:33:36;20.70;60.00
1956;DHT22;978;48.314;11.562;2023-12-22T11:36:05;20.80;60.60
1956;DHT22;978;48.314;11.562;2023-12-22T11:38:33;20.70;60.20
1956;DHT22;978;48.314;11.562;2023-12-22T11:41:01;20.70;60.00
1956;DHT22;978;48.314;11.562;2023-12-22T11:43:31;20.70;59.90
1956;DHT22;978;48.314;11.562;2023-12-22T11:46:03;20.70;59.80
1956;DHT22;978;48.314;11.562;2023-12-22T11:48:31;20.70;59.80
1956;DHT22;978;48.314;11.562;2023-12-22T11:51:00;20.70;60.30
1956;DHT22;978;48.314;11.562;2023-12-22T11:53:30;20.70;60.80
1956;DHT22;978;48.314;11.562;2023-12-22T11:56:05;20.70;60.90
1956;DHT22;978;48.314;11.562;2023-12-22T11:58:36;20.70;61.00
1956;DHT22;978;48.314;11.562;2023-12-22T12:01:07;20.70;61.10
1956;DHT22;978;48.314;11.562;2023-12-22T12:03:37;20.70;61.10
1956;DHT22;978;48.314;11.562;2023-12-22T12:06:21;20.70;61.10
1956;DHT22;978;48.314;11.562;2023-12-22T12:08:50;20.70;61.10
1956;DHT22;978;48.314;11.562;2023-12-22T12:11:20;20.70;60.40
1956;DHT22;978;48.314;11.562;2023-12-22T12:13:49;20.70;60.00
1956;DHT22;978;48.314;11.562;2023-12-22T12:16:20;20.70;60.00
1956;DHT22;978;48.314;11.562;2023-12-22T12:18:50;22.80;61.70
1956;DHT22;978;48.314;11.562;2023-12-22T12:21:19;20.70;60.80
1956;DHT22;978;48.314;11.562;2023-12-22T12:23:48;20.70;60.90
1956;DHT22;978;48.314;11.562;2023-12-22T12:26:16;20.70;61.50
1956;DHT22;978;48.314;11.562;2023-12-22T12:28:46;20.70;61.00
1956;DHT22;978;48.314;11.562;2023-12-22T12:31:14;20.70;61.00
1956;DHT22;978;48.314;11.562;2023-12-22T12:33:44;21.00;61.20
1956;DHT22;978;48.314;11.562;2023-12-22T12:36:13;20.90;61.70
1956;DHT22;978;48.314;11.562;2023-12-22T12:38:48;20.70;59.80
1956;DHT22;978;48.314;11.562;2023-12-22T12:41:29;23.10;60.50
1956;DHT22;978;48.314;11.562;2023-12-22T12:43:58;20.70;59.80
1956;DHT22;978;48.314;11.562;2023-12-22T12:46:32;22.90;61.40
1956;DHT22;978;48.314;11.562;2023-12-22T12:49:05;20.70;60.10
1956;DHT22;978;48.314;11.562;2023-12-22T12:51:36;20.70;60.30
1956;DHT22;978;48.314;11.562;2023-12-22T12:54:06;20.70;60.50
1956;DHT22;978;48.314;11.562;2023-12-22T12:56:38;20.60;60.60
1956;DHT22;978;48.314;11.562;2023-12-22T12:59:08;20.70;61.30
1956;DHT22;978;48.314;11.562;2023-12-22T13:01:39;20.70;61.10
1956;DHT22;978;48.314;11.562;2023-12-22T13:04:10;20.70;60.70
1956;DHT22;978;48.314;11.562;2023-12-22T13:06:49;20.70;61.20
1956;DHT22;978;48.314;11.562;2023-12-22T13:09:18;20.70;61.30
1956;DHT22;978;48.314;11.562;2023-12-22T13:11:47;20.70;61.30
1956;DHT22;978;48.314;11.562;2023-12-22T13:14:21;20.70;61.40
1956;DHT22;978;48.314;11.562;2023-12-22T13:16:50;17.80;59.80
1956;DHT22;978;48.314;11.562;2023-12-22T13:19:20;20.70;61.10
1956;DHT22;978;48.314;11.562;2023-12-22T13:21:49;20.70;61.60
1956;DHT22;978;48.314;11.562;2023-12-22T13:24:18;20.70;61.60
1956;DHT22;978;48.314;11.562;2023-12-22T13:26:45;20.70;61.20
1956;DHT22;978;48.314;11.562;2023-12-22T13:29:13;20.80;61.70
1956;DHT22;978;48.314;11.562;2023-12-22T13:31:42;20.70;61.70
1956;DHT22;978;48.314;11.562;2023-12-22T13:34:13;20.70;61.70
1956;DHT22;978;48.314;11.562;2023-12-22T13:36:42;20.70;61.70
1956;DHT22;978;48.314;11.562;2023-12-22T13:39:11;20.70;61.80
1956;DHT22;978;48.314;11.562;2023-12-22T13:41:40;20.80;61.90
1956;DHT22;978;48.314;11.562;2023-12-22T13:44:11;20.70;61.80
1956;DHT22;978;48.314;11.562;2023-12-22T13:46:41;20.70;61.80
1956;DHT22;978;48.314;11.562;2023-12-22T13:49:10;20.70;61.90
1956;DHT22;978;48.314;11.562;2023-12-22T13:51:44;20.70;61.90
1956;DHT22;978;48.314;11.562;2023-12-22T13:54:14;20.70;62.00
1956;DHT22;978;48.314;11.562;2023-12-22T13:56:42;20.70;62.00
1956;DHT22;978;48.314;11.562;2023-12-22T13:59:11;20.70;62.10
1956;DHT22;978;48.314;11.562;2023-12-22T14:01:41;20.70;62.10
1956;DHT22;978;48.314;11.562;2023-12-22T14:04:11;21.00;62.30
1956;DHT22;978;48.314;11.562;2023-12-22T14:06:41;20.70;62.20
1956;DHT22;978;48.314;11.562;2023-12-22T14:09:10;21.00;62.40
1956;DHT22;978;48.314;11.562;2023-12-22T14:11:38;20.70;62.20
1956;DHT22;978;48.314;11.562;2023-12-22T14:14:05;20.70;62.30
1956;DHT22;978;48.314;11.562;2023-12-22T14:16:36;20.70;62.30
1956;DHT22;978;48.314;11.562;2023-12-22T14:19:04;20.70;62.30
1956;DHT22;978;48.314;11.562;2023-12-22T14:21:32;20.70;62.40
1956;DHT22;978;48.314;11.562;2023-12-22T14:24:00;20.70;62.40
1956;DHT22;978;48.314;11.562;2023-12-22T14:26:29;20.90;62.50
1956;DHT22;978;48.314;11.562;2023-12-22T14:28:57;20.70;62.50
1956;DHT22;978;48.314;11.562;2023-12-22T14:31:25;20.70;62.50
1956;DHT22;978;48.314;11.562;2023-12-22T14:33:53;20.80;62.60
1956;DHT22;978;48.314;11.562;2023-12-22T14:36:25;20.80;62.60
1956;DHT22;978;48.314;11.562;2023-12-22T14:38:51;20.80;62.20
1956;DHT22;978;48.314;11.562;2023-12-22T14:41:19;20.70;62.60
1956;DHT22;978;48.314;11.562;2023-12-22T14:43:48;20.70;62.60
1956;DHT22;978;48.314;11.562;2023-12-22T14:46:17;20.80;62.70
1956;DHT22;978;48.314;11.562;2023-12-22T14:48:45;20.70;62.70
1956;DHT22;978;48.314;11.562;2023-12-22T14:51:12;20.90;62.90
1956;DHT22;978;48.314;11.562;2023-12-22T14:53:40;20.80;62.80
1956;DHT22;978;48.314;11.562;2023-12-22T14:56:08;20.70;62.70
1956;DHT22;978;48.314;11.562;2023-12-22T14:58:35;20.70;62.80
1956;DHT22;978;48.314;11.562;2023-12-22T15:01:05;20.80;62.80
1956;DHT22;978;48.314;11.562;2023-12-22T15:03:33;20.70;62.80
1956;DHT22;978;48.314;11.562;2023-12-22T15:06:02;20.70;62.30
1956;DHT22;978;48.314;11.562;2023-12-22T15:08:30;20.70;62.30
1956;DHT22;978;48.314;11.562;2023-12-22T15:10:58;20.70;62.80
1956;DHT22;978;48.314;11.562;2023-12-22T15:13:26;20.70;62.80
1956;DHT22;978;48.314;11.562;2023-12-22T15:15:54;20.70;62.80
1956;DHT22;978;48.314;11.562;2023-12-22T15:18:23;20.80;62.90
1956;DHT22;978;48.314;11.562;2023-12-22T15:20:51;20.90;63.00
1956;DHT22;978;48.314;11.562;2023-12-22T15:23:19;20.70;62.90
1956;DHT22;978;48.314;11.562;2023-12-22T15:25:47;20.80;62.90
1956;DHT22;978;48.314;11.562;2023-12-22T15:28:15;21.10;63.20
1956;DHT22;978;48.314;11.562;2023-12-22T15:30:43;20.70;62.90
1956;DHT22;978;48.314;11.562;2023-12-22T15:33:10;20.80;63.00
1956;DHT22;978;48.314;11.562;2023-12-22T15:35:41;20.80;63.00
1956;DHT22;978;48.314;11.562;2023-12-22T15:38:10;20.70;63.00
1956;DHT22;978;48.314;11.562;2023-12-22T15:40:40;20.70;63.60
1956;DHT22;978;48.314;11.562;2023-12-22T15:43:08;20.70;63.00
1956;DHT22;978;48.314;11.562;2023-12-22T15:45:36;20.80;63.10
1956;DHT22;978;48.314;11.562;2023-12-22T15:48:05;21.00;63.20
1956;DHT22;978;48.314;11.562;2023-12-22T15:50:32;20.80;63.10
1956;DHT22;978;48.314;11.562;2023-12-22T15:53:02;20.80;62.60
1956;DHT22;978;48.314;11.562;2023-12-22T15:55:30;20.80;62.70
1956;DHT22;978;48.314;11.562;2023-12-22T15:57:58;20.80;63.30
1956;DHT22;978;48.314;11.562;2023-12-22T16:00:26;20.80;63.30
1956;DHT22;978;48.314;11.562;2023-12-22T16:02:54;20.80;62.70
1956;DHT22;978;48.314;11.562;2023-12-22T16:05:23;20.80;62.70
1956;DHT22;978;48.314;11.562;2023-12-22T16:07:51;20.80;63.30
1956;DHT22;978;48.314;11.562;2023-12-22T16:10:20;20.80;63.30
1956;DHT22;978;48.314;11.562;2023-12-22T16:12:48;20.80;63.30